Aviation Digital Data Service (ADDS)

Output produced by METARs form (0324 UTC 19 August 2019)
found at http://www.aviationweather.gov/metar/data/
 
METAR text: PHLI 190253Z 04010KT 10SM CLR 30/22 A2997 RMK AO2 SLP146 T03000217 56014
Conditions at: PHLI (LIHUE/KAUAI IS , HI, US) observed 0253 UTC 19 August 2019
Temperature: 30.0°C (86°F)
Dewpoint: 21.7°C (71°F) [RH = 61%]
Pressure (altimeter): 29.97 inches Hg (1015.0 mb)
[Sea-level pressure: 1014.6 mb]
Winds: from the NE (40 degrees) at 12 MPH (10 knots; 5.1 m/s)
Visibility: 10 or more miles (16+ km)
Ceiling: at least 12,000 feet AGL
Clouds: sky clear below 12,000 feet AGL
Weather: no significant weather observed at this time

METAR text: PHLI 190153Z 05010KT 10SM CLR 31/22 A2998 RMK AO2 SLP147 T03060217
Conditions at: PHLI (LIHUE/KAUAI IS , HI, US) observed 0153 UTC 19 August 2019
Temperature: 30.6°C (87°F)
Dewpoint: 21.7°C (71°F) [RH = 59%]
Pressure (altimeter): 29.98 inches Hg (1015.3 mb)
[Sea-level pressure: 1014.7 mb]
Winds: from the NE (50 degrees) at 12 MPH (10 knots; 5.1 m/s)
Visibility: 10 or more miles (16+ km)
Ceiling: at least 12,000 feet AGL
Clouds: sky clear below 12,000 feet AGL
Weather: no significant weather observed at this time

METAR text: PHLI 190053Z 06011KT 10SM CLR 31/22 A2999 RMK AO2 SLP151 T03060217
Conditions at: PHLI (LIHUE/KAUAI IS , HI, US) observed 0053 UTC 19 August 2019
Temperature: 30.6°C (87°F)
Dewpoint: 21.7°C (71°F) [RH = 59%]
Pressure (altimeter): 29.99 inches Hg (1015.7 mb)
[Sea-level pressure: 1015.1 mb]
Winds: from the ENE (60 degrees) at 13 MPH (11 knots; 5.7 m/s)
Visibility: 10 or more miles (16+ km)
Ceiling: at least 12,000 feet AGL
Clouds: sky clear below 12,000 feet AGL
Weather: no significant weather observed at this time

METAR text: PHLI 182353Z 05010KT 10SM CLR 31/22 A3001 RMK AO2 SLP158 T03110222 10317 20283 56016
Conditions at: PHLI (LIHUE/KAUAI IS , HI, US) observed 2353 UTC 18 August 2019
Temperature: 31.1°C (88°F)
Dewpoint: 22.2°C (72°F) [RH = 59%]
Pressure (altimeter): 30.01 inches Hg (1016.3 mb)
[Sea-level pressure: 1015.8 mb]
Winds: from the NE (50 degrees) at 12 MPH (10 knots; 5.1 m/s)
Visibility: 10 or more miles (16+ km)
Ceiling: at least 12,000 feet AGL
Clouds: sky clear below 12,000 feet AGL
Weather: no significant weather observed at this time

METAR text: PHLI 182253Z 05009KT 10SM FEW020 31/22 A3002 RMK AO2 SLP163 T03060222
Conditions at: PHLI (LIHUE/KAUAI IS , HI, US) observed 2253 UTC 18 August 2019
Temperature: 30.6°C (87°F)
Dewpoint: 22.2°C (72°F) [RH = 61%]
Pressure (altimeter): 30.02 inches Hg (1016.7 mb)
[Sea-level pressure: 1016.3 mb]
Winds: from the NE (50 degrees) at 10 MPH (9 knots; 4.6 m/s)
Visibility: 10 or more miles (16+ km)
Ceiling: at least 12,000 feet AGL
Clouds: few clouds at 2000 feet AGL
Weather: no significant weather observed at this time

METAR text: PHLI 182153Z 05010KT 10SM FEW020 31/22 A3004 RMK AO2 SLP168 T03110222
Conditions at: PHLI (LIHUE/KAUAI IS , HI, US) observed 2153 UTC 18 August 2019
Temperature: 31.1°C (88°F)
Dewpoint: 22.2°C (72°F) [RH = 59%]
Pressure (altimeter): 30.04 inches Hg (1017.4 mb)
[Sea-level pressure: 1016.8 mb]
Winds: from the NE (50 degrees) at 12 MPH (10 knots; 5.1 m/s)
Visibility: 10 or more miles (16+ km)
Ceiling: at least 12,000 feet AGL
Clouds: few clouds at 2000 feet AGL
Weather: no significant weather observed at this time

METAR text: PHLI 182053Z 06010KT 10SM SCT022 31/23 A3006 RMK AO2 SLP174 T03110228 51008
Conditions at: PHLI (LIHUE/KAUAI IS , HI, US) observed 2053 UTC 18 August 2019
Temperature: 31.1°C (88°F)
Dewpoint: 22.8°C (73°F) [RH = 61%]
Pressure (altimeter): 30.06 inches Hg (1018.0 mb)
[Sea-level pressure: 1017.4 mb]
Winds: from the ENE (60 degrees) at 12 MPH (10 knots; 5.1 m/s)
Visibility: 10 or more miles (16+ km)
Ceiling: at least 12,000 feet AGL
Clouds: scattered clouds at 2200 feet AGL
Weather: no significant weather observed at this time

METAR text: PHLI 181953Z 06010KT 10SM FEW021 30/22 A3006 RMK AO2 SLP174 T03000222
Conditions at: PHLI (LIHUE/KAUAI IS , HI, US) observed 1953 UTC 18 August 2019
Temperature: 30.0°C (86°F)
Dewpoint: 22.2°C (72°F) [RH = 63%]
Pressure (altimeter): 30.06 inches Hg (1018.0 mb)
[Sea-level pressure: 1017.4 mb]
Winds: from the ENE (60 degrees) at 12 MPH (10 knots; 5.1 m/s)
Visibility: 10 or more miles (16+ km)
Ceiling: at least 12,000 feet AGL
Clouds: few clouds at 2100 feet AGL
Weather: no significant weather observed at this time

METAR text: PHLI 181853Z 05010KT 10SM SCT020 30/22 A3005 RMK AO2 SLP171 T03000222
Conditions at: PHLI (LIHUE/KAUAI IS , HI, US) observed 1853 UTC 18 August 2019
Temperature: 30.0°C (86°F)
Dewpoint: 22.2°C (72°F) [RH = 63%]
Pressure (altimeter): 30.05 inches Hg (1017.7 mb)
[Sea-level pressure: 1017.1 mb]
Winds: from the NE (50 degrees) at 12 MPH (10 knots; 5.1 m/s)
Visibility: 10 or more miles (16+ km)
Ceiling: at least 12,000 feet AGL
Clouds: scattered clouds at 2000 feet AGL
Weather: no significant weather observed at this time

METAR text: PHLI 181753Z 05009KT 10SM SCT022 29/22 A3003 RMK AO2 SLP167 T02890222 10289 20267 53005
Conditions at: PHLI (LIHUE/KAUAI IS , HI, US) observed 1753 UTC 18 August 2019
Temperature: 28.9°C (84°F)
Dewpoint: 22.2°C (72°F) [RH = 67%]
Pressure (altimeter): 30.03 inches Hg (1017.0 mb)
[Sea-level pressure: 1016.7 mb]
Winds: from the NE (50 degrees) at 10 MPH (9 knots; 4.6 m/s)
Visibility: 10 or more miles (16+ km)
Ceiling: at least 12,000 feet AGL
Clouds: scattered clouds at 2200 feet AGL
Weather: no significant weather observed at this time

METAR text: PHLI 181653Z 06007KT 10SM SCT022 27/22 A3003 RMK AO2 SLP165 T02720222
Conditions at: PHLI (LIHUE/KAUAI IS , HI, US) observed 1653 UTC 18 August 2019
Temperature: 27.2°C (81°F)
Dewpoint: 22.2°C (72°F) [RH = 74%]
Pressure (altimeter): 30.03 inches Hg (1017.0 mb)
[Sea-level pressure: 1016.5 mb]
Winds: from the ENE (60 degrees) at 8 MPH (7 knots; 3.6 m/s)
Visibility: 10 or more miles (16+ km)
Ceiling: at least 12,000 feet AGL
Clouds: scattered clouds at 2200 feet AGL
Weather: no significant weather observed at this time

METAR text: PHLI 181553Z 04008KT 10SM SCT020 27/22 A3002 RMK AO2 SLP163 T02670222
Conditions at: PHLI (LIHUE/KAUAI IS , HI, US) observed 1553 UTC 18 August 2019
Temperature: 26.7°C (80°F)
Dewpoint: 22.2°C (72°F) [RH = 76%]
Pressure (altimeter): 30.02 inches Hg (1016.7 mb)
[Sea-level pressure: 1016.3 mb]
Winds: from the NE (40 degrees) at 9 MPH (8 knots; 4.1 m/s)
Visibility: 10 or more miles (16+ km)
Ceiling: at least 12,000 feet AGL
Clouds: scattered clouds at 2000 feet AGL
Weather: no significant weather observed at this time

METAR text: PHLI 181453Z AUTO 06008KT 10SM FEW021 SCT029 27/22 A3002 RMK AO2 SLP162 T02720217 55004 TSNO
Conditions at: PHLI (LIHUE/KAUAI IS , HI, US) observed 1453 UTC 18 August 2019
Temperature: 27.2°C (81°F)
Dewpoint: 21.7°C (71°F) [RH = 72%]
Pressure (altimeter): 30.02 inches Hg (1016.7 mb)
[Sea-level pressure: 1016.2 mb]
Winds: from the ENE (60 degrees) at 9 MPH (8 knots; 4.1 m/s)
Visibility: 10 or more miles (16+ km)
Ceiling: at least 12,000 feet AGL
Clouds: few clouds at 2100 feet AGL
scattered clouds at 2900 feet AGL
Weather: automated observation with no human augmentation;
there may or may not be significant weather present at this time

METAR text: PHLI 181353Z AUTO 05008KT 10SM SCT020 27/22 A3002 RMK AO2 SLP162 T02720222 TSNO
Conditions at: PHLI (LIHUE/KAUAI IS , HI, US) observed 1353 UTC 18 August 2019
Temperature: 27.2°C (81°F)
Dewpoint: 22.2°C (72°F) [RH = 74%]
Pressure (altimeter): 30.02 inches Hg (1016.7 mb)
[Sea-level pressure: 1016.2 mb]
Winds: from the NE (50 degrees) at 9 MPH (8 knots; 4.1 m/s)
Visibility: 10 or more miles (16+ km)
Ceiling: at least 12,000 feet AGL
Clouds: scattered clouds at 2000 feet AGL
Weather: automated observation with no human augmentation;
there may or may not be significant weather present at this time

METAR text: PHLI 181324Z AUTO 06009KT 10SM SCT020 27/22 A3002 RMK AO2 T02720222 TSNO
Conditions at: PHLI (LIHUE/KAUAI IS , HI, US) observed 1324 UTC 18 August 2019
Temperature: 27.2°C (81°F)
Dewpoint: 22.2°C (72°F) [RH = 74%]
Pressure (altimeter): 30.02 inches Hg (1016.7 mb)
Winds: from the ENE (60 degrees) at 10 MPH (9 knots; 4.6 m/s)
Visibility: 10 or more miles (16+ km)
Ceiling: at least 12,000 feet AGL
Clouds: scattered clouds at 2000 feet AGL
Weather: automated observation with no human augmentation;
there may or may not be significant weather present at this time

METAR text: PHLI 181310Z AUTO 06009KT 10SM BKN021 27/22 A3002 RMK AO2 T02720222 TSNO
Conditions at: PHLI (LIHUE/KAUAI IS , HI, US) observed 1310 UTC 18 August 2019
Temperature: 27.2°C (81°F)
Dewpoint: 22.2°C (72°F) [RH = 74%]
Pressure (altimeter): 30.02 inches Hg (1016.7 mb)
Winds: from the ENE (60 degrees) at 10 MPH (9 knots; 4.6 m/s)
Visibility: 10 or more miles (16+ km)
Ceiling: 2100 feet AGL
Clouds: broken clouds at 2100 feet AGL
Weather: automated observation with no human augmentation;
there may or may not be significant weather present at this time

METAR text: PHLI 181253Z AUTO 07009KT 10SM SCT021 27/22 A3002 RMK AO2 SLP162 T02720222 TSNO
Conditions at: PHLI (LIHUE/KAUAI IS , HI, US) observed 1253 UTC 18 August 2019
Temperature: 27.2°C (81°F)
Dewpoint: 22.2°C (72°F) [RH = 74%]
Pressure (altimeter): 30.02 inches Hg (1016.7 mb)
[Sea-level pressure: 1016.2 mb]
Winds: from the ENE (70 degrees) at 10 MPH (9 knots; 4.6 m/s)
Visibility: 10 or more miles (16+ km)
Ceiling: at least 12,000 feet AGL
Clouds: scattered clouds at 2100 feet AGL
Weather: automated observation with no human augmentation;
there may or may not be significant weather present at this time

METAR text: PHLI 181153Z AUTO 06010KT 10SM CLR 27/22 A3003 RMK AO2 SLP166 T02720217 10278 20272 58014 TSNO
Conditions at: PHLI (LIHUE/KAUAI IS , HI, US) observed 1153 UTC 18 August 2019
Temperature: 27.2°C (81°F)
Dewpoint: 21.7°C (71°F) [RH = 72%]
Pressure (altimeter): 30.03 inches Hg (1017.0 mb)
[Sea-level pressure: 1016.6 mb]
Winds: from the ENE (60 degrees) at 12 MPH (10 knots; 5.1 m/s)
Visibility: 10 or more miles (16+ km)
Ceiling: at least 12,000 feet AGL
Clouds: sky clear below 12,000 feet AGL
Weather: automated observation with no human augmentation;
there may or may not be significant weather present at this time

METAR text: PHLI 181053Z AUTO 07012KT 10SM FEW019 27/22 A3005 RMK AO2 SLP171 T02720222 TSNO
Conditions at: PHLI (LIHUE/KAUAI IS , HI, US) observed 1053 UTC 18 August 2019
Temperature: 27.2°C (81°F)
Dewpoint: 22.2°C (72°F) [RH = 74%]
Pressure (altimeter): 30.05 inches Hg (1017.7 mb)
[Sea-level pressure: 1017.1 mb]
Winds: from the ENE (70 degrees) at 14 MPH (12 knots; 6.2 m/s)
Visibility: 10 or more miles (16+ km)
Ceiling: at least 12,000 feet AGL
Clouds: few clouds at 1900 feet AGL
Weather: automated observation with no human augmentation;
there may or may not be significant weather present at this time

METAR text: PHLI 180953Z AUTO 07012KT 10SM FEW020 FEW027 28/23 A3006 RMK AO2 SLP176 T02780228 403170267 TSNO
Conditions at: PHLI (LIHUE/KAUAI IS , HI, US) observed 0953 UTC 18 August 2019
Temperature: 27.8°C (82°F)
Dewpoint: 22.8°C (73°F) [RH = 74%]
Pressure (altimeter): 30.06 inches Hg (1018.0 mb)
[Sea-level pressure: 1017.6 mb]
Winds: from the ENE (70 degrees) at 14 MPH (12 knots; 6.2 m/s)
Visibility: 10 or more miles (16+ km)
Ceiling: at least 12,000 feet AGL
Clouds: few clouds at 2000 feet AGL
few clouds at 2700 feet AGL
Weather: automated observation with no human augmentation;
there may or may not be significant weather present at this time

METAR text: PHLI 180853Z AUTO 07011KT 10SM FEW018 28/23 A3007 RMK AO2 SLP180 T02780228 51011 TSNO
Conditions at: PHLI (LIHUE/KAUAI IS , HI, US) observed 0853 UTC 18 August 2019
Temperature: 27.8°C (82°F)
Dewpoint: 22.8°C (73°F) [RH = 74%]
Pressure (altimeter): 30.07 inches Hg (1018.4 mb)
[Sea-level pressure: 1018.0 mb]
Winds: from the ENE (70 degrees) at 13 MPH (11 knots; 5.7 m/s)
Visibility: 10 or more miles (16+ km)
Ceiling: at least 12,000 feet AGL
Clouds: few clouds at 1800 feet AGL
Weather: automated observation with no human augmentation;
there may or may not be significant weather present at this time

METAR text: PHLI 180828Z AUTO 06013KT 10SM SCT018 28/23 A3007 RMK AO2 T02780228 TSNO
Conditions at: PHLI (LIHUE/KAUAI IS , HI, US) observed 0828 UTC 18 August 2019
Temperature: 27.8°C (82°F)
Dewpoint: 22.8°C (73°F) [RH = 74%]
Pressure (altimeter): 30.07 inches Hg (1018.4 mb)
Winds: from the ENE (60 degrees) at 15 MPH (13 knots; 6.7 m/s)
Visibility: 10 or more miles (16+ km)
Ceiling: at least 12,000 feet AGL
Clouds: scattered clouds at 1800 feet AGL
Weather: automated observation with no human augmentation;
there may or may not be significant weather present at this time

METAR text: PHLI 180810Z AUTO 06011KT 10SM BKN018 28/23 A3007 RMK AO2 T02780233 TSNO
Conditions at: PHLI (LIHUE/KAUAI IS , HI, US) observed 0810 UTC 18 August 2019
Temperature: 27.8°C (82°F)
Dewpoint: 23.3°C (74°F) [RH = 77%]
Pressure (altimeter): 30.07 inches Hg (1018.4 mb)
Winds: from the ENE (60 degrees) at 13 MPH (11 knots; 5.7 m/s)
Visibility: 10 or more miles (16+ km)
Ceiling: 1800 feet AGL
Clouds: broken clouds at 1800 feet AGL
Weather: automated observation with no human augmentation;
there may or may not be significant weather present at this time

METAR text: PHLI 180753Z 06014KT 10SM SCT019 28/23 A3007 RMK AO2 SLP180 LAST T02780228
Conditions at: PHLI (LIHUE/KAUAI IS , HI, US) observed 0753 UTC 18 August 2019
Temperature: 27.8°C (82°F)
Dewpoint: 22.8°C (73°F) [RH = 74%]
Pressure (altimeter): 30.07 inches Hg (1018.4 mb)
[Sea-level pressure: 1018.0 mb]
Winds: from the ENE (60 degrees) at 16 MPH (14 knots; 7.2 m/s)
Visibility: 10 or more miles (16+ km)
Ceiling: at least 12,000 feet AGL
Clouds: scattered clouds at 1900 feet AGL
Weather: no significant weather observed at this time

METAR text: PHLI 180653Z 06015KT 10SM FEW019 SCT046 28/23 A3006 RMK AO2 SLP175 T02780228
Conditions at: PHLI (LIHUE/KAUAI IS , HI, US) observed 0653 UTC 18 August 2019
Temperature: 27.8°C (82°F)
Dewpoint: 22.8°C (73°F) [RH = 74%]
Pressure (altimeter): 30.06 inches Hg (1018.0 mb)
[Sea-level pressure: 1017.5 mb]
Winds: from the ENE (60 degrees) at 17 MPH (15 knots; 7.7 m/s)
Visibility: 10 or more miles (16+ km)
Ceiling: at least 12,000 feet AGL
Clouds: few clouds at 1900 feet AGL
scattered clouds at 4600 feet AGL
Weather: no significant weather observed at this time

METAR text: PHLI 180553Z 07012KT 10SM FEW020 SCT041 28/22 A3004 RMK AO2 SLP169 T02780222 10311 20278 53007
Conditions at: PHLI (LIHUE/KAUAI IS , HI, US) observed 0553 UTC 18 August 2019
Temperature: 27.8°C (82°F)
Dewpoint: 22.2°C (72°F) [RH = 72%]
Pressure (altimeter): 30.04 inches Hg (1017.4 mb)
[Sea-level pressure: 1016.9 mb]
Winds: from the ENE (70 degrees) at 14 MPH (12 knots; 6.2 m/s)
Visibility: 10 or more miles (16+ km)
Ceiling: at least 12,000 feet AGL
Clouds: few clouds at 2000 feet AGL
scattered clouds at 4100 feet AGL
Weather: no significant weather observed at this time

METAR text: PHLI 180453Z 06013KT 10SM SCT017 SCT025 28/23 A3002 RMK AO2 SLP164 T02830233
Conditions at: PHLI (LIHUE/KAUAI IS , HI, US) observed 0453 UTC 18 August 2019
Temperature: 28.3°C (83°F)
Dewpoint: 23.3°C (74°F) [RH = 74%]
Pressure (altimeter): 30.02 inches Hg (1016.7 mb)
[Sea-level pressure: 1016.4 mb]
Winds: from the ENE (60 degrees) at 15 MPH (13 knots; 6.7 m/s)
Visibility: 10 or more miles (16+ km)
Ceiling: at least 12,000 feet AGL
Clouds: scattered clouds at 1700 feet AGL
scattered clouds at 2500 feet AGL
Weather: no significant weather observed at this time

METAR text: PHLI 180353Z 06012KT 10SM SCT017 BKN032 BKN050 29/23 A3001 RMK AO2 SLP159 T02890233
Conditions at: PHLI (LIHUE/KAUAI IS , HI, US) observed 0353 UTC 18 August 2019
Temperature: 28.9°C (84°F)
Dewpoint: 23.3°C (74°F) [RH = 72%]
Pressure (altimeter): 30.01 inches Hg (1016.3 mb)
[Sea-level pressure: 1015.9 mb]
Winds: from the ENE (60 degrees) at 14 MPH (12 knots; 6.2 m/s)
Visibility: 10 or more miles (16+ km)
Ceiling: 3200 feet AGL
Clouds: scattered clouds at 1700 feet AGL
broken clouds at 3200 feet AGL
broken clouds at 5000 feet AGL
Weather: no significant weather observed at this time

METAR text: PHLI 180253Z 06011KT 10SM SCT019 30/23 A3002 RMK AO2 SLP162 T03000233 56009
Conditions at: PHLI (LIHUE/KAUAI IS , HI, US) observed 0253 UTC 18 August 2019
Temperature: 30.0°C (86°F)
Dewpoint: 23.3°C (74°F) [RH = 67%]
Pressure (altimeter): 30.02 inches Hg (1016.7 mb)
[Sea-level pressure: 1016.2 mb]
Winds: from the ENE (60 degrees) at 13 MPH (11 knots; 5.7 m/s)
Visibility: 10 or more miles (16+ km)
Ceiling: at least 12,000 feet AGL
Clouds: scattered clouds at 1900 feet AGL
Weather: no significant weather observed at this time

METAR text: PHLI 180153Z 06011KT 10SM SCT018 30/23 A3002 RMK AO2 SLP162 T03000233
Conditions at: PHLI (LIHUE/KAUAI IS , HI, US) observed 0153 UTC 18 August 2019
Temperature: 30.0°C (86°F)
Dewpoint: 23.3°C (74°F) [RH = 67%]
Pressure (altimeter): 30.02 inches Hg (1016.7 mb)
[Sea-level pressure: 1016.2 mb]
Winds: from the ENE (60 degrees) at 13 MPH (11 knots; 5.7 m/s)
Visibility: 10 or more miles (16+ km)
Ceiling: at least 12,000 feet AGL
Clouds: scattered clouds at 1800 feet AGL
Weather: no significant weather observed at this time

METAR text: PHLI 180053Z 06013KT 10SM SCT025 31/23 A3003 RMK AO2 SLP165 T03110233
Conditions at: PHLI (LIHUE/KAUAI IS , HI, US) observed 0053 UTC 18 August 2019
Temperature: 31.1°C (88°F)
Dewpoint: 23.3°C (74°F) [RH = 63%]
Pressure (altimeter): 30.03 inches Hg (1017.0 mb)
[Sea-level pressure: 1016.5 mb]
Winds: from the ENE (60 degrees) at 15 MPH (13 knots; 6.7 m/s)
Visibility: 10 or more miles (16+ km)
Ceiling: at least 12,000 feet AGL
Clouds: scattered clouds at 2500 feet AGL
Weather: no significant weather observed at this time

METAR text: PHLI 172353Z 08013KT 10SM SCT018 BKN024 31/24 A3005 RMK AO2 RAB08E18 SLP170 P0000 60000 T03060239 10317 20267 56013
Conditions at: PHLI (LIHUE/KAUAI IS , HI, US) observed 2353 UTC 17 August 2019
Temperature: 30.6°C (87°F)
Dewpoint: 23.9°C (75°F) [RH = 68%]
Pressure (altimeter): 30.05 inches Hg (1017.7 mb)
[Sea-level pressure: 1017.0 mb]
Winds: from the E (80 degrees) at 15 MPH (13 knots; 6.7 m/s)
Visibility: 10 or more miles (16+ km)
Ceiling: 2400 feet AGL
Clouds: scattered clouds at 1800 feet AGL
broken clouds at 2400 feet AGL
Weather: no significant weather observed at this time

METAR text: PHLI 172253Z 07012KT 10SM SCT018 BKN045 BKN050 31/24 A3006 RMK AO2 SLP174 T03110239
Conditions at: PHLI (LIHUE/KAUAI IS , HI, US) observed 2253 UTC 17 August 2019
Temperature: 31.1°C (88°F)
Dewpoint: 23.9°C (75°F) [RH = 66%]
Pressure (altimeter): 30.06 inches Hg (1018.0 mb)
[Sea-level pressure: 1017.4 mb]
Winds: from the ENE (70 degrees) at 14 MPH (12 knots; 6.2 m/s)
Visibility: 10 or more miles (16+ km)
Ceiling: 4500 feet AGL
Clouds: scattered clouds at 1800 feet AGL
broken clouds at 4500 feet AGL
broken clouds at 5000 feet AGL
Weather: no significant weather observed at this time

METAR text: PHLI 172153Z 07012KT 10SM SCT018 BKN025 BKN042 31/24 A3007 RMK AO2 SLP177 T03060239
Conditions at: PHLI (LIHUE/KAUAI IS , HI, US) observed 2153 UTC 17 August 2019
Temperature: 30.6°C (87°F)
Dewpoint: 23.9°C (75°F) [RH = 68%]
Pressure (altimeter): 30.07 inches Hg (1018.4 mb)
[Sea-level pressure: 1017.7 mb]
Winds: from the ENE (70 degrees) at 14 MPH (12 knots; 6.2 m/s)
Visibility: 10 or more miles (16+ km)
Ceiling: 2500 feet AGL
Clouds: scattered clouds at 1800 feet AGL
broken clouds at 2500 feet AGL
broken clouds at 4200 feet AGL
Weather: no significant weather observed at this time

METAR text: PHLI 172053Z 07009KT 10SM FEW018 SCT043 BKN050 30/23 A3008 RMK AO2 SLP184 60000 T03000233 50003
Conditions at: PHLI (LIHUE/KAUAI IS , HI, US) observed 2053 UTC 17 August 2019
Temperature: 30.0°C (86°F)
Dewpoint: 23.3°C (74°F) [RH = 67%]
Pressure (altimeter): 30.08 inches Hg (1018.7 mb)
[Sea-level pressure: 1018.4 mb]
Winds: from the ENE (70 degrees) at 10 MPH (9 knots; 4.6 m/s)
Visibility: 10 or more miles (16+ km)
Ceiling: 5000 feet AGL
Clouds: few clouds at 1800 feet AGL
scattered clouds at 4300 feet AGL
broken clouds at 5000 feet AGL
Weather: no significant weather observed at this time

METAR text: PHLI 171953Z 09012KT 10SM SCT032 30/23 A3009 RMK AO2 RAB01E18 SLP185 P0000 T03000233
Conditions at: PHLI (LIHUE/KAUAI IS , HI, US) observed 1953 UTC 17 August 2019
Temperature: 30.0°C (86°F)
Dewpoint: 23.3°C (74°F) [RH = 67%]
Pressure (altimeter): 30.09 inches Hg (1019.0 mb)
[Sea-level pressure: 1018.5 mb]
Winds: from the E (90 degrees) at 14 MPH (12 knots; 6.2 m/s)
Visibility: 10 or more miles (16+ km)
Ceiling: at least 12,000 feet AGL
Clouds: scattered clouds at 3200 feet AGL
Weather: no significant weather observed at this time

METAR text: PHLI 171853Z 07012KT 10SM BKN018 BKN035 BKN050 28/23 A3008 RMK AO2 SLP184 T02830233
Conditions at: PHLI (LIHUE/KAUAI IS , HI, US) observed 1853 UTC 17 August 2019
Temperature: 28.3°C (83°F)
Dewpoint: 23.3°C (74°F) [RH = 74%]
Pressure (altimeter): 30.08 inches Hg (1018.7 mb)
[Sea-level pressure: 1018.4 mb]
Winds: from the ENE (70 degrees) at 14 MPH (12 knots; 6.2 m/s)
Visibility: 10 or more miles (16+ km)
Ceiling: 1800 feet AGL
Clouds: broken clouds at 1800 feet AGL
broken clouds at 3500 feet AGL
broken clouds at 5000 feet AGL
Weather: no significant weather observed at this time

METAR text: PHLI 171753Z 08012KT 10SM SCT020 BKN037 OVC048 28/23 A3007 RMK AO2 RAB38E48 SLP181 P0000 60000 T02780233 10278 20272 53008
Conditions at: PHLI (LIHUE/KAUAI IS , HI, US) observed 1753 UTC 17 August 2019
Temperature: 27.8°C (82°F)
Dewpoint: 23.3°C (74°F) [RH = 77%]
Pressure (altimeter): 30.07 inches Hg (1018.4 mb)
[Sea-level pressure: 1018.1 mb]
Winds: from the E (80 degrees) at 14 MPH (12 knots; 6.2 m/s)
Visibility: 10 or more miles (16+ km)
Ceiling: 3700 feet AGL
Clouds: scattered clouds at 2000 feet AGL
broken clouds at 3700 feet AGL
overcast cloud deck at 4800 feet AGL
Weather: no significant weather observed at this time

METAR text: PHLI 171653Z 07012KT 10SM SCT020 SCT030 BKN045 28/23 A3006 RMK AO2 SLP178 T02780228
Conditions at: PHLI (LIHUE/KAUAI IS , HI, US) observed 1653 UTC 17 August 2019
Temperature: 27.8°C (82°F)
Dewpoint: 22.8°C (73°F) [RH = 74%]
Pressure (altimeter): 30.06 inches Hg (1018.0 mb)
[Sea-level pressure: 1017.8 mb]
Winds: from the ENE (70 degrees) at 14 MPH (12 knots; 6.2 m/s)
Visibility: 10 or more miles (16+ km)
Ceiling: 4500 feet AGL
Clouds: scattered clouds at 2000 feet AGL
scattered clouds at 3000 feet AGL
broken clouds at 4500 feet AGL
Weather: no significant weather observed at this time

METAR text: PHLI 171553Z AUTO 07010KT 10SM FEW019 SCT026 SCT033 27/22 A3006 RMK AO2 SLP175 T02720217 TSNO
Conditions at: PHLI (LIHUE/KAUAI IS , HI, US) observed 1553 UTC 17 August 2019
Temperature: 27.2°C (81°F)
Dewpoint: 21.7°C (71°F) [RH = 72%]
Pressure (altimeter): 30.06 inches Hg (1018.0 mb)
[Sea-level pressure: 1017.5 mb]
Winds: from the ENE (70 degrees) at 12 MPH (10 knots; 5.1 m/s)
Visibility: 10 or more miles (16+ km)
Ceiling: at least 12,000 feet AGL
Clouds: few clouds at 1900 feet AGL
scattered clouds at 2600 feet AGL
scattered clouds at 3300 feet AGL
Weather: automated observation with no human augmentation;
there may or may not be significant weather present at this time

Forecast for: PHLI (LIHUE/KAUAI IS , HI, US)
Text: PHLI 182337Z 1900/1924 05010KT P6SM SCT020
Forecast period: 0000 UTC 19 August 2019 to 0000 UTC 20 August 2019
Forecast type: FROM: standard forecast or significant change
Winds: from the NE (50 degrees) at 12 MPH (10 knots; 5.1 m/s)
Visibility: 6 or more miles 10+ km)
Ceiling: at least 12,000 feet AGL
Clouds: scattered clouds at 2000 feet AGL
Weather: no significant weather forecast for this period